sensor_id;sensor_type;location;lat;lon;timestamp;P1;durP1;ratioP1;P2;durP2;ratioP2
14732;SDS011;7457;50.960;6.830;2022-10-16T00:00:43;3.50;;;2.90;;
14732;SDS011;7457;50.960;6.830;2022-10-16T00:03:09;3.22;;;2.65;;
14732;SDS011;7457;50.960;6.830;2022-10-16T00:05:38;5.65;;;2.70;;
14732;SDS011;7457;50.960;6.830;2022-10-16T00:08:05;3.33;;;2.95;;
14732;SDS011;7457;50.960;6.830;2022-10-16T00:10:32;6.07;;;2.83;;
14732;SDS011;7457;50.960;6.830;2022-10-16T00:12:58;3.75;;;3.25;;
14732;SDS011;7457;50.960;6.830;2022-10-16T00:15:23;3.45;;;2.80;;
14732;SDS011;7457;50.960;6.830;2022-10-16T00:17:49;5.15;;;2.70;;
14732;SDS011;7457;50.960;6.830;2022-10-16T00:20:15;3.70;;;2.80;;
14732;SDS011;7457;50.960;6.830;2022-10-16T00:22:41;3.67;;;2.90;;
14732;SDS011;7457;50.960;6.830;2022-10-16T00:25:06;3.13;;;2.83;;
14732;SDS011;7457;50.960;6.830;2022-10-16T00:27:32;2.65;;;2.45;;
14732;SDS011;7457;50.960;6.830;2022-10-16T00:29:58;3.03;;;2.72;;
14732;SDS011;7457;50.960;6.830;2022-10-16T00:32:24;3.28;;;2.72;;
14732;SDS011;7457;50.960;6.830;2022-10-16T00:34:49;2.75;;;2.22;;
14732;SDS011;7457;50.960;6.830;2022-10-16T00:37:15;4.70;;;2.67;;
14732;SDS011;7457;50.960;6.830;2022-10-16T00:39:40;3.33;;;2.45;;
14732;SDS011;7457;50.960;6.830;2022-10-16T00:42:06;2.38;;;2.17;;
14732;SDS011;7457;50.960;6.830;2022-10-16T00:44:42;3.65;;;2.90;;
14732;SDS011;7457;50.960;6.830;2022-10-16T00:50:07;2.92;;;2.63;;
14732;SDS011;7457;50.960;6.830;2022-10-16T00:52:56;2.65;;;2.45;;
14732;SDS011;7457;50.960;6.830;2022-10-16T00:55:25;2.72;;;2.45;;
14732;SDS011;7457;50.960;6.830;2022-10-16T00:57:52;3.55;;;2.28;;
14732;SDS011;7457;50.960;6.830;2022-10-16T01:00:20;2.38;;;2.17;;
14732;SDS011;7457;50.960;6.830;2022-10-16T01:02:52;4.13;;;2.60;;
14732;SDS011;7457;50.960;6.830;2022-10-16T01:05:22;3.78;;;2.45;;
14732;SDS011;7457;50.960;6.830;2022-10-16T01:08:26;2.55;;;2.35;;
14732;SDS011;7457;50.960;6.830;2022-10-16T01:11:06;4.43;;;2.50;;
14732;SDS011;7457;50.960;6.830;2022-10-16T01:13:48;2.40;;;2.20;;
14732;SDS011;7457;50.960;6.830;2022-10-16T01:16:30;2.65;;;2.45;;
14732;SDS011;7457;50.960;6.830;2022-10-16T01:19:12;2.75;;;2.40;;
14732;SDS011;7457;50.960;6.830;2022-10-16T01:21:46;3.50;;;2.40;;
14732;SDS011;7457;50.960;6.830;2022-10-16T01:35:26;6.03;;;3.70;;
14732;SDS011;7457;50.960;6.830;2022-10-16T01:40:52;5.65;;;3.40;;
14732;SDS011;7457;50.960;6.830;2022-10-16T01:43:40;3.78;;;3.38;;
14732;SDS011;7457;50.960;6.830;2022-10-16T01:46:10;3.53;;;3.17;;
14732;SDS011;7457;50.960;6.830;2022-10-16T01:48:39;4.38;;;3.20;;
14732;SDS011;7457;50.960;6.830;2022-10-16T01:51:06;4.28;;;3.58;;
14732;SDS011;7457;50.960;6.830;2022-10-16T01:53:35;3.85;;;3.42;;
14732;SDS011;7457;50.960;6.830;2022-10-16T01:56:02;6.32;;;3.70;;
14732;SDS011;7457;50.960;6.830;2022-10-16T01:58:33;5.75;;;3.95;;
14732;SDS011;7457;50.960;6.830;2022-10-16T02:01:03;4.72;;;3.70;;
14732;SDS011;7457;50.960;6.830;2022-10-16T02:03:32;4.35;;;3.60;;
14732;SDS011;7457;50.960;6.830;2022-10-16T02:06:01;5.22;;;3.63;;
14732;SDS011;7457;50.960;6.830;2022-10-16T02:08:27;4.57;;;4.07;;
14732;SDS011;7457;50.960;6.830;2022-10-16T02:10:57;4.40;;;3.50;;
14732;SDS011;7457;50.960;6.830;2022-10-16T02:15:58;3.88;;;3.55;;
14732;SDS011;7457;50.960;6.830;2022-10-16T02:18:23;4.45;;;3.13;;
14732;SDS011;7457;50.960;6.830;2022-10-16T02:23:55;3.50;;;3.20;;
14732;SDS011;7457;50.960;6.830;2022-10-16T02:26:43;3.65;;;3.35;;
14732;SDS011;7457;50.960;6.830;2022-10-16T02:29:10;4.47;;;3.40;;
14732;SDS011;7457;50.960;6.830;2022-10-16T02:31:41;4.15;;;3.42;;
14732;SDS011;7457;50.960;6.830;2022-10-16T02:34:12;3.80;;;3.50;;
14732;SDS011;7457;50.960;6.830;2022-10-16T02:36:40;4.80;;;3.67;;
14732;SDS011;7457;50.960;6.830;2022-10-16T02:39:07;5.65;;;3.70;;
14732;SDS011;7457;50.960;6.830;2022-10-16T02:41:34;3.25;;;2.97;;
14732;SDS011;7457;50.960;6.830;2022-10-16T02:44:00;5.05;;;2.80;;
14732;SDS011;7457;50.960;6.830;2022-10-16T02:46:26;4.18;;;2.90;;
14732;SDS011;7457;50.960;6.830;2022-10-16T02:48:51;3.17;;;2.92;;
14732;SDS011;7457;50.960;6.830;2022-10-16T02:51:17;6.78;;;2.78;;
14732;SDS011;7457;50.960;6.830;2022-10-16T02:53:43;2.55;;;2.35;;
14732;SDS011;7457;50.960;6.830;2022-10-16T02:56:08;3.47;;;2.55;;
14732;SDS011;7457;50.960;6.830;2022-10-16T02:58:34;3.22;;;2.10;;
14732;SDS011;7457;50.960;6.830;2022-10-16T03:00:59;2.70;;;2.40;;
14732;SDS011;7457;50.960;6.830;2022-10-16T03:03:25;2.53;;;2.13;;
14732;SDS011;7457;50.960;6.830;2022-10-16T03:05:51;2.03;;;1.92;;
14732;SDS011;7457;50.960;6.830;2022-10-16T03:08:16;2.40;;;2.00;;
14732;SDS011;7457;50.960;6.830;2022-10-16T03:10:42;2.03;;;1.90;;
14732;SDS011;7457;50.960;6.830;2022-10-16T03:13:08;4.13;;;1.92;;
14732;SDS011;7457;50.960;6.830;2022-10-16T03:15:33;2.97;;;2.20;;
14732;SDS011;7457;50.960;6.830;2022-10-16T03:17:59;2.53;;;1.77;;
14732;SDS011;7457;50.960;6.830;2022-10-16T03:20:25;3.45;;;2.08;;
14732;SDS011;7457;50.960;6.830;2022-10-16T03:22:51;1.45;;;1.35;;
14732;SDS011;7457;50.960;6.830;2022-10-16T03:25:17;2.35;;;1.40;;
14732;SDS011;7457;50.960;6.830;2022-10-16T03:27:42;1.60;;;1.50;;
14732;SDS011;7457;50.960;6.830;2022-10-16T03:30:08;2.88;;;1.42;;
14732;SDS011;7457;50.960;6.830;2022-10-16T03:32:34;1.83;;;1.30;;
14732;SDS011;7457;50.960;6.830;2022-10-16T03:35:00;1.15;;;1.05;;
14732;SDS011;7457;50.960;6.830;2022-10-16T03:37:25;2.05;;;1.58;;
14732;SDS011;7457;50.960;6.830;2022-10-16T03:39:51;1.40;;;1.30;;
14732;SDS011;7457;50.960;6.830;2022-10-16T03:42:16;3.65;;;1.48;;
14732;SDS011;7457;50.960;6.830;2022-10-16T03:44:42;1.73;;;1.40;;
14732;SDS011;7457;50.960;6.830;2022-10-16T03:47:08;1.58;;;1.48;;
14732;SDS011;7457;50.960;6.830;2022-10-16T03:49:33;2.45;;;1.52;;
14732;SDS011;7457;50.960;6.830;2022-10-16T03:51:59;1.90;;;1.80;;
14732;SDS011;7457;50.960;6.830;2022-10-16T03:54:25;3.03;;;1.73;;
14732;SDS011;7457;50.960;6.830;2022-10-16T03:56:50;1.50;;;1.40;;
14732;SDS011;7457;50.960;6.830;2022-10-16T03:59:16;1.75;;;1.65;;
14732;SDS011;7457;50.960;6.830;2022-10-16T04:01:41;1.25;;;1.20;;
14732;SDS011;7457;50.960;6.830;2022-10-16T04:04:07;1.60;;;1.30;;
14732;SDS011;7457;50.960;6.830;2022-10-16T04:06:32;1.25;;;1.17;;
14732;SDS011;7457;50.960;6.830;2022-10-16T04:08:58;1.92;;;1.23;;
14732;SDS011;7457;50.960;6.830;2022-10-16T04:11:24;2.13;;;1.35;;
14732;SDS011;7457;50.960;6.830;2022-10-16T04:13:49;1.50;;;1.30;;
14732;SDS011;7457;50.960;6.830;2022-10-16T04:16:15;1.40;;;1.30;;
14732;SDS011;7457;50.960;6.830;2022-10-16T04:18:40;1.30;;;1.20;;
14732;SDS011;7457;50.960;6.830;2022-10-16T04:21:06;2.85;;;1.23;;
14732;SDS011;7457;50.960;6.830;2022-10-16T04:23:32;1.20;;;1.10;;
14732;SDS011;7457;50.960;6.830;2022-10-16T04:25:58;1.77;;;1.25;;
14732;SDS011;7457;50.960;6.830;2022-10-16T04:28:24;2.42;;;1.10;;
14732;SDS011;7457;50.960;6.830;2022-10-16T04:30:51;1.15;;;1.10;;
14732;SDS011;7457;50.960;6.830;2022-10-16T04:33:17;1.52;;;1.30;;
14732;SDS011;7457;50.960;6.830;2022-10-16T04:35:42;1.45;;;1.00;;
14732;SDS011;7457;50.960;6.830;2022-10-16T04:38:08;3.47;;;1.08;;
14732;SDS011;7457;50.960;6.830;2022-10-16T04:40:33;6.80;;;1.55;;
14732;SDS011;7457;50.960;6.830;2022-10-16T04:43:01;3.85;;;1.35;;
14732;SDS011;7457;50.960;6.830;2022-10-16T04:45:27;1.60;;;1.20;;
14732;SDS011;7457;50.960;6.830;2022-10-16T04:47:56;4.78;;;1.20;;
14732;SDS011;7457;50.960;6.830;2022-10-16T04:50:25;1.65;;;1.55;;
14732;SDS011;7457;50.960;6.830;2022-10-16T04:52:51;2.60;;;1.60;;
14732;SDS011;7457;50.960;6.830;2022-10-16T04:55:16;2.13;;;1.88;;
14732;SDS011;7457;50.960;6.830;2022-10-16T04:57:42;2.33;;;1.88;;
14732;SDS011;7457;50.960;6.830;2022-10-16T05:00:08;2.55;;;1.90;;
14732;SDS011;7457;50.960;6.830;2022-10-16T05:02:34;1.88;;;1.77;;
14732;SDS011;7457;50.960;6.830;2022-10-16T05:04:59;2.50;;;2.00;;
14732;SDS011;7457;50.960;6.830;2022-10-16T05:07:25;2.20;;;2.00;;
14732;SDS011;7457;50.960;6.830;2022-10-16T05:09:51;1.98;;;1.88;;
14732;SDS011;7457;50.960;6.830;2022-10-16T05:12:16;2.33;;;2.13;;
14732;SDS011;7457;50.960;6.830;2022-10-16T05:14:42;2.25;;;2.05;;
14732;SDS011;7457;50.960;6.830;2022-10-16T05:17:08;2.00;;;1.90;;
14732;SDS011;7457;50.960;6.830;2022-10-16T05:19:33;3.35;;;1.98;;
14732;SDS011;7457;50.960;6.830;2022-10-16T05:21:59;3.40;;;2.13;;
14732;SDS011;7457;50.960;6.830;2022-10-16T05:24:25;5.18;;;2.08;;
14732;SDS011;7457;50.960;6.830;2022-10-16T05:26:50;3.20;;;2.30;;
14732;SDS011;7457;50.960;6.830;2022-10-16T05:29:16;2.40;;;2.20;;
14732;SDS011;7457;50.960;6.830;2022-10-16T05:31:42;2.55;;;2.10;;
14732;SDS011;7457;50.960;6.830;2022-10-16T05:34:08;2.50;;;2.30;;
14732;SDS011;7457;50.960;6.830;2022-10-16T05:36:33;3.97;;;2.30;;
14732;SDS011;7457;50.960;6.830;2022-10-16T05:38:59;3.50;;;2.30;;
14732;SDS011;7457;50.960;6.830;2022-10-16T05:41:25;2.60;;;2.40;;
14732;SDS011;7457;50.960;6.830;2022-10-16T05:43:51;4.15;;;2.47;;
14732;SDS011;7457;50.960;6.830;2022-10-16T05:46:20;4.22;;;2.38;;
14732;SDS011;7457;50.960;6.830;2022-10-16T05:48:45;5.40;;;2.63;;
14732;SDS011;7457;50.960;6.830;2022-10-16T05:51:12;3.10;;;2.80;;
14732;SDS011;7457;50.960;6.830;2022-10-16T05:53:39;2.42;;;2.22;;
14732;SDS011;7457;50.960;6.830;2022-10-16T05:56:05;2.90;;;2.35;;
14732;SDS011;7457;50.960;6.830;2022-10-16T05:58:33;3.92;;;3.00;;
14732;SDS011;7457;50.960;6.830;2022-10-16T06:03:34;5.93;;;3.95;;
14732;SDS011;7457;50.960;6.830;2022-10-16T06:06:06;4.10;;;3.63;;
14732;SDS011;7457;50.960;6.830;2022-10-16T06:08:33;5.70;;;2.90;;
14732;SDS011;7457;50.960;6.830;2022-10-16T06:11:02;3.50;;;3.20;;
14732;SDS011;7457;50.960;6.830;2022-10-16T06:13:29;3.67;;;3.05;;
14732;SDS011;7457;50.960;6.830;2022-10-16T06:15:56;8.18;;;2.95;;
14732;SDS011;7457;50.960;6.830;2022-10-16T06:18:23;6.60;;;3.30;;
14732;SDS011;7457;50.960;6.830;2022-10-16T06:20:49;4.47;;;3.72;;
14732;SDS011;7457;50.960;6.830;2022-10-16T06:23:14;3.53;;;2.92;;
14732;SDS011;7457;50.960;6.830;2022-10-16T06:25:40;3.53;;;3.22;;
14732;SDS011;7457;50.960;6.830;2022-10-16T06:28:06;3.08;;;2.83;;
14732;SDS011;7457;50.960;6.830;2022-10-16T06:30:31;3.70;;;3.25;;
14732;SDS011;7457;50.960;6.830;2022-10-16T06:32:57;4.88;;;3.35;;
14732;SDS011;7457;50.960;6.830;2022-10-16T06:35:22;3.67;;;3.28;;
14732;SDS011;7457;50.960;6.830;2022-10-16T06:37:48;4.97;;;3.15;;
14732;SDS011;7457;50.960;6.830;2022-10-16T06:40:14;3.88;;;3.13;;
14732;SDS011;7457;50.960;6.830;2022-10-16T06:42:40;7.63;;;3.70;;
14732;SDS011;7457;50.960;6.830;2022-10-16T06:45:06;3.42;;;3.00;;
14732;SDS011;7457;50.960;6.830;2022-10-16T06:47:32;6.63;;;3.20;;
14732;SDS011;7457;50.960;6.830;2022-10-16T06:49:58;5.30;;;3.47;;
14732;SDS011;7457;50.960;6.830;2022-10-16T06:52:23;3.53;;;3.22;;
14732;SDS011;7457;50.960;6.830;2022-10-16T06:54:49;3.53;;;3.22;;
14732;SDS011;7457;50.960;6.830;2022-10-16T06:57:15;3.30;;;3.00;;
14732;SDS011;7457;50.960;6.830;2022-10-16T06:59:40;3.95;;;2.80;;
14732;SDS011;7457;50.960;6.830;2022-10-16T07:02:06;3.65;;;2.92;;
14732;SDS011;7457;50.960;6.830;2022-10-16T07:04:33;3.45;;;3.00;;
14732;SDS011;7457;50.960;6.830;2022-10-16T07:07:00;3.13;;;2.83;;
14732;SDS011;7457;50.960;6.830;2022-10-16T07:09:26;3.60;;;3.30;;
14732;SDS011;7457;50.960;6.830;2022-10-16T07:11:51;4.28;;;3.55;;
14732;SDS011;7457;50.960;6.830;2022-10-16T07:14:18;6.63;;;3.38;;
14732;SDS011;7457;50.960;6.830;2022-10-16T07:16:45;3.65;;;3.35;;
14732;SDS011;7457;50.960;6.830;2022-10-16T07:19:12;6.25;;;3.40;;
14732;SDS011;7457;50.960;6.830;2022-10-16T07:21:40;4.72;;;3.08;;
14732;SDS011;7457;50.960;6.830;2022-10-16T07:24:07;3.30;;;2.88;;
14732;SDS011;7457;50.960;6.830;2022-10-16T07:26:37;4.22;;;2.58;;
14732;SDS011;7457;50.960;6.830;2022-10-16T07:29:04;2.85;;;2.55;;
14732;SDS011;7457;50.960;6.830;2022-10-16T07:31:31;4.57;;;2.40;;
14732;SDS011;7457;50.960;6.830;2022-10-16T07:33:57;3.00;;;2.30;;
14732;SDS011;7457;50.960;6.830;2022-10-16T07:36:23;2.17;;;2.08;;
14732;SDS011;7457;50.960;6.830;2022-10-16T07:38:49;2.53;;;2.33;;
14732;SDS011;7457;50.960;6.830;2022-10-16T07:41:16;3.30;;;2.50;;
14732;SDS011;7457;50.960;6.830;2022-10-16T07:43:46;4.85;;;2.13;;
14732;SDS011;7457;50.960;6.830;2022-10-16T07:46:17;2.35;;;1.98;;
14732;SDS011;7457;50.960;6.830;2022-10-16T07:48:44;4.38;;;2.20;;
14732;SDS011;7457;50.960;6.830;2022-10-16T07:51:12;2.38;;;2.00;;
14732;SDS011;7457;50.960;6.830;2022-10-16T07:53:43;2.55;;;1.83;;
14732;SDS011;7457;50.960;6.830;2022-10-16T07:56:09;3.85;;;2.00;;
14732;SDS011;7457;50.960;6.830;2022-10-16T07:58:34;2.53;;;1.77;;
14732;SDS011;7457;50.960;6.830;2022-10-16T08:01:06;3.20;;;2.08;;
14732;SDS011;7457;50.960;6.830;2022-10-16T08:03:32;2.10;;;1.90;;
14732;SDS011;7457;50.960;6.830;2022-10-16T08:05:59;1.83;;;1.67;;
14732;SDS011;7457;50.960;6.830;2022-10-16T08:08:25;2.13;;;1.80;;
14732;SDS011;7457;50.960;6.830;2022-10-16T08:10:51;3.20;;;1.88;;
14732;SDS011;7457;50.960;6.830;2022-10-16T08:13:17;2.45;;;1.70;;
14732;SDS011;7457;50.960;6.830;2022-10-16T08:15:43;2.38;;;2.17;;
14732;SDS011;7457;50.960;6.830;2022-10-16T08:18:10;2.25;;;1.42;;
14732;SDS011;7457;50.960;6.830;2022-10-16T08:20:37;2.55;;;1.52;;
14732;SDS011;7457;50.960;6.830;2022-10-16T08:23:03;3.45;;;1.50;;
14732;SDS011;7457;50.960;6.830;2022-10-16T08:25:29;2.13;;;1.70;;
14732;SDS011;7457;50.960;6.830;2022-10-16T08:27:55;2.47;;;1.80;;
14732;SDS011;7457;50.960;6.830;2022-10-16T08:30:21;3.13;;;1.58;;
14732;SDS011;7457;50.960;6.830;2022-10-16T08:32:48;4.57;;;2.00;;
14732;SDS011;7457;50.960;6.830;2022-10-16T08:35:14;2.17;;;1.90;;
14732;SDS011;7457;50.960;6.830;2022-10-16T08:37:40;1.92;;;1.67;;
14732;SDS011;7457;50.960;6.830;2022-10-16T08:40:07;2.03;;;1.83;;
14732;SDS011;7457;50.960;6.830;2022-10-16T08:45:21;5.90;;;1.60;;
14732;SDS011;7457;50.960;6.830;2022-10-16T08:50:49;2.53;;;1.52;;
14732;SDS011;7457;50.960;6.830;2022-10-16T08:53:30;2.35;;;1.50;;
14732;SDS011;7457;50.960;6.830;2022-10-16T08:56:01;2.03;;;1.83;;
14732;SDS011;7457;50.960;6.830;2022-10-16T08:58:27;4.63;;;1.30;;
14732;SDS011;7457;50.960;6.830;2022-10-16T09:01:03;4.03;;;1.50;;
14732;SDS011;7457;50.960;6.830;2022-10-16T09:07:01;1.50;;;0.77;;
14732;SDS011;7457;50.960;6.830;2022-10-16T09:09:56;2.22;;;0.80;;
14732;SDS011;7457;50.960;6.830;2022-10-16T09:20:53;1.48;;;0.90;;
14732;SDS011;7457;50.960;6.830;2022-10-16T09:23:26;1.60;;;0.95;;
14732;SDS011;7457;50.960;6.830;2022-10-16T09:25:56;0.70;;;0.70;;
14732;SDS011;7457;50.960;6.830;2022-10-16T09:28:23;0.85;;;0.70;;
14732;SDS011;7457;50.960;6.830;2022-10-16T09:30:49;0.65;;;0.65;;
14732;SDS011;7457;50.960;6.830;2022-10-16T09:33:15;1.55;;;0.70;;
14732;SDS011;7457;50.960;6.830;2022-10-16T09:35:45;2.70;;;0.90;;
14732;SDS011;7457;50.960;6.830;2022-10-16T09:38:48;1.55;;;0.70;;
14732;SDS011;7457;50.960;6.830;2022-10-16T09:46:30;2.92;;;0.70;;
14732;SDS011;7457;50.960;6.830;2022-10-16T09:48:58;1.98;;;0.50;;
14732;SDS011;7457;50.960;6.830;2022-10-16T09:51:35;2.15;;;0.60;;
14732;SDS011;7457;50.960;6.830;2022-10-16T09:54:23;2.15;;;0.63;;
14732;SDS011;7457;50.960;6.830;2022-10-16T09:56:48;1.33;;;0.50;;
14732;SDS011;7457;50.960;6.830;2022-10-16T09:59:19;0.88;;;0.50;;
14732;SDS011;7457;50.960;6.830;2022-10-16T10:01:49;0.52;;;0.30;;
14732;SDS011;7457;50.960;6.830;2022-10-16T10:04:17;1.20;;;0.60;;
14732;SDS011;7457;50.960;6.830;2022-10-16T10:06:45;0.73;;;0.68;;
14732;SDS011;7457;50.960;6.830;2022-10-16T10:12:24;0.75;;;0.65;;
14732;SDS011;7457;50.960;6.830;2022-10-16T10:14:47;1.15;;;0.60;;
14732;SDS011;7457;50.960;6.830;2022-10-16T10:19:47;3.63;;;0.63;;
14732;SDS011;7457;50.960;6.830;2022-10-16T10:30:54;2.00;;;0.50;;
14732;SDS011;7457;50.960;6.830;2022-10-16T10:39:00;1.02;;;0.60;;
14732;SDS011;7457;50.960;6.830;2022-10-16T10:44:50;2.58;;;0.68;;
14732;SDS011;7457;50.960;6.830;2022-10-16T11:06:16;1.83;;;0.82;;
14732;SDS011;7457;50.960;6.830;2022-10-16T11:08:53;1.60;;;0.68;;
14732;SDS011;7457;50.960;6.830;2022-10-16T11:11:38;3.72;;;0.60;;
14732;SDS011;7457;50.960;6.830;2022-10-16T11:14:29;1.73;;;0.50;;
14732;SDS011;7457;50.960;6.830;2022-10-16T11:17:08;5.32;;;0.85;;
14732;SDS011;7457;50.960;6.830;2022-10-16T11:30:31;1.98;;;1.30;;
14732;SDS011;7457;50.960;6.830;2022-10-16T11:33:24;1.17;;;0.47;;
14732;SDS011;7457;50.960;6.830;2022-10-16T11:36:01;0.80;;;0.43;;
14732;SDS011;7457;50.960;6.830;2022-10-16T11:41:53;0.98;;;0.40;;
14732;SDS011;7457;50.960;6.830;2022-10-16T11:47:01;4.93;;;0.70;;
14732;SDS011;7457;50.960;6.830;2022-10-16T11:49:39;1.90;;;0.60;;
14732;SDS011;7457;50.960;6.830;2022-10-16T11:52:17;1.45;;;0.50;;
14732;SDS011;7457;50.960;6.830;2022-10-16T11:57:42;0.65;;;0.30;;
14732;SDS011;7457;50.960;6.830;2022-10-16T12:00:23;1.38;;;0.40;;
14732;SDS011;7457;50.960;6.830;2022-10-16T12:03:04;1.85;;;0.50;;
14732;SDS011;7457;50.960;6.830;2022-10-16T12:05:46;0.50;;;0.30;;
14732;SDS011;7457;50.960;6.830;2022-10-16T12:08:22;1.73;;;0.77;;
14732;SDS011;7457;50.960;6.830;2022-10-16T12:10:48;2.78;;;0.30;;
14732;SDS011;7457;50.960;6.830;2022-10-16T12:16:21;1.90;;;0.50;;
14732;SDS011;7457;50.960;6.830;2022-10-16T12:18:48;3.60;;;0.60;;
14732;SDS011;7457;50.960;6.830;2022-10-16T12:21:30;1.13;;;0.40;;
14732;SDS011;7457;50.960;6.830;2022-10-16T12:23:56;0.70;;;0.57;;
14732;SDS011;7457;50.960;6.830;2022-10-16T12:28:53;0.70;;;0.40;;
14732;SDS011;7457;50.960;6.830;2022-10-16T12:31:19;2.20;;;0.45;;
14732;SDS011;7457;50.960;6.830;2022-10-16T12:33:58;4.32;;;0.43;;
14732;SDS011;7457;50.960;6.830;2022-10-16T12:36:33;0.90;;;0.40;;
14732;SDS011;7457;50.960;6.830;2022-10-16T12:38:59;1.10;;;0.65;;
14732;SDS011;7457;50.960;6.830;2022-10-16T12:43:57;5.65;;;0.75;;
14732;SDS011;7457;50.960;6.830;2022-10-16T12:49:04;1.52;;;0.77;;
14732;SDS011;7457;50.960;6.830;2022-10-16T12:53:59;1.70;;;0.60;;
14732;SDS011;7457;50.960;6.830;2022-10-16T13:04:31;3.42;;;0.60;;
14732;SDS011;7457;50.960;6.830;2022-10-16T13:12:26;3.63;;;0.70;;
14732;SDS011;7457;50.960;6.830;2022-10-16T13:18:21;1.67;;;0.43;;
14732;SDS011;7457;50.960;6.830;2022-10-16T13:21:03;5.03;;;0.77;;
14732;SDS011;7457;50.960;6.830;2022-10-16T13:29:15;2.15;;;0.73;;
14732;SDS011;7457;50.960;6.830;2022-10-16T13:31:41;1.48;;;0.60;;
14732;SDS011;7457;50.960;6.830;2022-10-16T13:34:27;1.45;;;0.60;;
14732;SDS011;7457;50.960;6.830;2022-10-16T13:36:53;5.20;;;1.13;;
14732;SDS011;7457;50.960;6.830;2022-10-16T13:44:35;1.63;;;0.65;;
14732;SDS011;7457;50.960;6.830;2022-10-16T13:47:10;4.40;;;0.75;;
14732;SDS011;7457;50.960;6.830;2022-10-16T13:49:41;3.15;;;0.52;;
14732;SDS011;7457;50.960;6.830;2022-10-16T13:52:15;1.15;;;0.52;;
14732;SDS011;7457;50.960;6.830;2022-10-16T13:54:43;0.57;;;0.52;;
14732;SDS011;7457;50.960;6.830;2022-10-16T13:57:12;0.90;;;0.50;;
14732;SDS011;7457;50.960;6.830;2022-10-16T13:59:39;2.97;;;0.70;;
14732;SDS011;7457;50.960;6.830;2022-10-16T14:02:50;0.75;;;0.45;;
14732;SDS011;7457;50.960;6.830;2022-10-16T14:04:53;0.70;;;0.47;;
14732;SDS011;7457;50.960;6.830;2022-10-16T14:07:23;1.40;;;0.63;;
14732;SDS011;7457;50.960;6.830;2022-10-16T14:09:51;3.75;;;0.60;;
14732;SDS011;7457;50.960;6.830;2022-10-16T14:12:18;0.90;;;0.60;;
14732;SDS011;7457;50.960;6.830;2022-10-16T14:14:45;3.28;;;0.82;;
14732;SDS011;7457;50.960;6.830;2022-10-16T14:17:14;0.70;;;0.70;;
14732;SDS011;7457;50.960;6.830;2022-10-16T14:19:40;2.08;;;0.70;;
14732;SDS011;7457;50.960;6.830;2022-10-16T14:25:45;1.70;;;1.00;;
14732;SDS011;7457;50.960;6.830;2022-10-16T14:27:57;2.40;;;0.73;;
14732;SDS011;7457;50.960;6.830;2022-10-16T14:30:48;1.05;;;0.80;;
14732;SDS011;7457;50.960;6.830;2022-10-16T14:33:23;0.93;;;0.77;;
14732;SDS011;7457;50.960;6.830;2022-10-16T14:39:04;0.82;;;0.80;;
14732;SDS011;7457;50.960;6.830;2022-10-16T14:41:41;2.13;;;0.47;;
14732;SDS011;7457;50.960;6.830;2022-10-16T14:44:10;0.95;;;0.88;;
14732;SDS011;7457;50.960;6.830;2022-10-16T14:46:38;0.88;;;0.70;;
14732;SDS011;7457;50.960;6.830;2022-10-16T14:51:34;1.75;;;0.80;;
14732;SDS011;7457;50.960;6.830;2022-10-16T14:54:01;2.17;;;1.90;;
14732;SDS011;7457;50.960;6.830;2022-10-16T14:56:48;2.90;;;2.60;;
14732;SDS011;7457;50.960;6.830;2022-10-16T14:59:34;1.90;;;1.30;;
14732;SDS011;7457;50.960;6.830;2022-10-16T15:04:45;1.73;;;1.63;;
14732;SDS011;7457;50.960;6.830;2022-10-16T15:07:11;1.17;;;0.90;;
14732;SDS011;7457;50.960;6.830;2022-10-16T15:09:37;1.98;;;1.00;;
14732;SDS011;7457;50.960;6.830;2022-10-16T15:12:02;0.75;;;0.70;;
14732;SDS011;7457;50.960;6.830;2022-10-16T15:14:28;2.55;;;0.90;;
14732;SDS011;7457;50.960;6.830;2022-10-16T15:16:54;1.58;;;0.80;;
14732;SDS011;7457;50.960;6.830;2022-10-16T15:19:19;1.88;;;0.80;;
14732;SDS011;7457;50.960;6.830;2022-10-16T15:21:45;0.77;;;0.60;;
14732;SDS011;7457;50.960;6.830;2022-10-16T15:24:12;0.88;;;0.50;;
14732;SDS011;7457;50.960;6.830;2022-10-16T15:26:38;3.35;;;0.98;;
14732;SDS011;7457;50.960;6.830;2022-10-16T15:29:04;0.95;;;0.85;;
14732;SDS011;7457;50.960;6.830;2022-10-16T15:31:30;1.45;;;0.95;;
14732;SDS011;7457;50.960;6.830;2022-10-16T15:33:56;2.78;;;0.90;;
14732;SDS011;7457;50.960;6.830;2022-10-16T15:36:29;3.72;;;0.95;;
14732;SDS011;7457;50.960;6.830;2022-10-16T15:38:58;1.15;;;0.80;;
14732;SDS011;7457;50.960;6.830;2022-10-16T15:41:24;0.82;;;0.70;;
14732;SDS011;7457;50.960;6.830;2022-10-16T15:43:50;1.30;;;0.80;;
14732;SDS011;7457;50.960;6.830;2022-10-16T15:46:20;2.10;;;1.15;;
14732;SDS011;7457;50.960;6.830;2022-10-16T15:48:51;1.58;;;0.93;;
14732;SDS011;7457;50.960;6.830;2022-10-16T15:51:21;1.98;;;1.20;;
14732;SDS011;7457;50.960;6.830;2022-10-16T15:53:47;1.33;;;1.02;;
14732;SDS011;7457;50.960;6.830;2022-10-16T15:56:13;2.35;;;0.90;;
14732;SDS011;7457;50.960;6.830;2022-10-16T15:58:39;1.27;;;0.93;;
14732;SDS011;7457;50.960;6.830;2022-10-16T16:01:05;5.90;;;1.30;;
14732;SDS011;7457;50.960;6.830;2022-10-16T16:03:31;1.67;;;1.17;;
14732;SDS011;7457;50.960;6.830;2022-10-16T16:05:57;1.08;;;0.90;;
14732;SDS011;7457;50.960;6.830;2022-10-16T16:08:28;2.33;;;1.05;;
14732;SDS011;7457;50.960;6.830;2022-10-16T16:10:57;3.38;;;1.55;;
14732;SDS011;7457;50.960;6.830;2022-10-16T16:13:23;1.65;;;1.13;;
14732;SDS011;7457;50.960;6.830;2022-10-16T16:15:49;1.40;;;1.30;;
14732;SDS011;7457;50.960;6.830;2022-10-16T16:18:15;2.17;;;1.55;;
14732;SDS011;7457;50.960;6.830;2022-10-16T16:20:40;2.80;;;1.58;;
14732;SDS011;7457;50.960;6.830;2022-10-16T16:23:06;2.40;;;1.50;;
14732;SDS011;7457;50.960;6.830;2022-10-16T16:25:32;2.45;;;1.33;;
14732;SDS011;7457;50.960;6.830;2022-10-16T16:27:57;1.25;;;1.10;;
14732;SDS011;7457;50.960;6.830;2022-10-16T16:30:23;2.03;;;1.27;;
14732;SDS011;7457;50.960;6.830;2022-10-16T16:32:48;1.92;;;1.27;;
14732;SDS011;7457;50.960;6.830;2022-10-16T16:35:14;3.92;;;1.40;;
14732;SDS011;7457;50.960;6.830;2022-10-16T16:37:40;1.00;;;0.90;;
14732;SDS011;7457;50.960;6.830;2022-10-16T16:40:10;1.60;;;0.88;;
14732;SDS011;7457;50.960;6.830;2022-10-16T16:42:39;1.08;;;0.90;;
14732;SDS011;7457;50.960;6.830;2022-10-16T16:45:27;1.27;;;1.17;;
14732;SDS011;7457;50.960;6.830;2022-10-16T16:47:55;2.00;;;1.30;;
14732;SDS011;7457;50.960;6.830;2022-10-16T16:50:21;1.65;;;1.23;;
14732;SDS011;7457;50.960;6.830;2022-10-16T16:52:46;1.30;;;1.20;;
14732;SDS011;7457;50.960;6.830;2022-10-16T16:55:12;1.65;;;1.42;;
14732;SDS011;7457;50.960;6.830;2022-10-16T16:57:38;4.03;;;1.45;;
14732;SDS011;7457;50.960;6.830;2022-10-16T17:00:03;2.22;;;1.60;;
14732;SDS011;7457;50.960;6.830;2022-10-16T17:02:30;8.38;;;1.42;;
14732;SDS011;7457;50.960;6.830;2022-10-16T17:04:55;2.92;;;1.20;;
14732;SDS011;7457;50.960;6.830;2022-10-16T17:07:22;1.67;;;1.25;;
14732;SDS011;7457;50.960;6.830;2022-10-16T17:09:50;2.78;;;1.55;;
14732;SDS011;7457;50.960;6.830;2022-10-16T17:12:15;2.30;;;1.73;;
14732;SDS011;7457;50.960;6.830;2022-10-16T17:14:41;3.38;;;1.80;;
14732;SDS011;7457;50.960;6.830;2022-10-16T17:17:06;4.18;;;1.27;;
14732;SDS011;7457;50.960;6.830;2022-10-16T17:19:32;1.60;;;1.50;;
14732;SDS011;7457;50.960;6.830;2022-10-16T17:21:58;1.40;;;1.27;;
14732;SDS011;7457;50.960;6.830;2022-10-16T17:24:23;2.15;;;1.23;;
14732;SDS011;7457;50.960;6.830;2022-10-16T17:26:49;2.08;;;1.73;;
14732;SDS011;7457;50.960;6.830;2022-10-16T17:29:15;3.45;;;1.58;;
14732;SDS011;7457;50.960;6.830;2022-10-16T17:31:42;1.98;;;1.60;;
14732;SDS011;7457;50.960;6.830;2022-10-16T17:34:09;2.05;;;1.55;;
14732;SDS011;7457;50.960;6.830;2022-10-16T17:36:36;3.65;;;1.90;;
14732;SDS011;7457;50.960;6.830;2022-10-16T17:39:07;1.45;;;1.30;;
14732;SDS011;7457;50.960;6.830;2022-10-16T17:41:35;2.83;;;1.30;;
14732;SDS011;7457;50.960;6.830;2022-10-16T17:44:01;2.92;;;1.38;;
14732;SDS011;7457;50.960;6.830;2022-10-16T17:46:28;2.13;;;1.73;;
14732;SDS011;7457;50.960;6.830;2022-10-16T17:48:53;1.67;;;1.48;;
14732;SDS011;7457;50.960;6.830;2022-10-16T17:51:20;3.78;;;1.65;;